sensor_id;sensor_type;location;lat;lon;timestamp;pressure;altitude;pressure_sealevel;temperature;humidity
29417;BME280;28421;51.030;4.006;2022-12-18T06:02:06;102660.44;;;-7.77;71.96
29417;BME280;28421;51.030;4.006;2022-12-18T06:04:32;102667.44;;;-7.79;71.72
29417;BME280;28421;51.030;4.006;2022-12-18T06:06:58;102661.41;;;-7.90;71.79
29417;BME280;28421;51.030;4.006;2022-12-18T06:09:23;102657.09;;;-7.97;71.71
29417;BME280;28421;51.030;4.006;2022-12-18T06:11:51;102649.22;;;-7.89;71.86
29417;BME280;28421;51.030;4.006;2022-12-18T06:14:17;102645.75;;;-7.90;71.75
29417;BME280;28421;51.030;4.006;2022-12-18T06:16:42;102648.34;;;-7.84;71.84
29417;BME280;28421;51.030;4.006;2022-12-18T06:19:15;102644.81;;;-7.78;71.34
29417;BME280;28421;51.030;4.006;2022-12-18T06:21:40;102632.72;;;-7.91;71.36
29417;BME280;28421;51.030;4.006;2022-12-18T06:24:06;102630.97;;;-7.91;71.63
29417;BME280;28421;51.030;4.006;2022-12-18T06:26:31;102631.06;;;-8.03;71.74
29417;BME280;28421;51.030;4.006;2022-12-18T06:28:57;102617.13;;;-8.05;71.81
29417;BME280;28421;51.030;4.006;2022-12-18T06:31:22;102637.94;;;-7.93;71.24
29417;BME280;28421;51.030;4.006;2022-12-18T06:33:48;102627.53;;;-7.96;71.31
29417;BME280;28421;51.030;4.006;2022-12-18T06:36:13;102628.38;;;-7.97;71.44
29417;BME280;28421;51.030;4.006;2022-12-18T06:38:41;102624.88;;;-7.93;71.49
29417;BME280;28421;51.030;4.006;2022-12-18T06:41:24;102620.53;;;-7.88;71.26
29417;BME280;28421;51.030;4.006;2022-12-18T06:43:50;102604.84;;;-7.89;71.48
29417;BME280;28421;51.030;4.006;2022-12-18T06:46:16;102596.22;;;-7.99;71.55
29417;BME280;28421;51.030;4.006;2022-12-18T06:48:41;102602.25;;;-7.88;71.46
29417;BME280;28421;51.030;4.006;2022-12-18T06:51:07;102596.22;;;-7.96;71.90
29417;BME280;28421;51.030;4.006;2022-12-18T06:53:32;102589.19;;;-7.89;71.94
29417;BME280;28421;51.030;4.006;2022-12-18T06:56:06;102570.13;;;-8.01;72.00
29417;BME280;28421;51.030;4.006;2022-12-18T06:58:32;102574.47;;;-7.99;71.97
29417;BME280;28421;51.030;4.006;2022-12-18T07:01:02;102571.81;;;-7.92;72.07
29417;BME280;28421;51.030;4.006;2022-12-18T07:03:28;102562.25;;;-7.91;71.86
29417;BME280;28421;51.030;4.006;2022-12-18T07:05:54;102572.56;;;-7.78;71.43
29417;BME280;28421;51.030;4.006;2022-12-18T07:08:19;102575.16;;;-7.78;71.62
29417;BME280;28421;51.030;4.006;2022-12-18T07:10:45;102585.69;;;-7.84;71.79
29417;BME280;28421;51.030;4.006;2022-12-18T07:13:10;102560.53;;;-7.97;71.71
29417;BME280;28421;51.030;4.006;2022-12-18T07:15:36;102567.41;;;-7.85;72.04
29417;BME280;28421;51.030;4.006;2022-12-18T07:18:01;102538.69;;;-7.87;72.11
29417;BME280;28421;51.030;4.006;2022-12-18T07:20:27;102542.13;;;-7.82;71.80
29417;BME280;28421;51.030;4.006;2022-12-18T07:22:52;102540.41;;;-7.84;71.85
29417;BME280;28421;51.030;4.006;2022-12-18T07:25:18;102560.44;;;-7.83;71.71
29417;BME280;28421;51.030;4.006;2022-12-18T07:27:43;102549.94;;;-7.80;72.42
29417;BME280;28421;51.030;4.006;2022-12-18T07:30:09;102536.03;;;-7.81;72.11
29417;BME280;28421;51.030;4.006;2022-12-18T07:32:34;102544.56;;;-7.63;72.11
29417;BME280;28421;51.030;4.006;2022-12-18T07:35:00;102532.41;;;-7.67;71.88
29417;BME280;28421;51.030;4.006;2022-12-18T07:37:25;102509.13;;;-7.87;72.03
29417;BME280;28421;51.030;4.006;2022-12-18T07:39:50;102471.78;;;-7.97;71.98
29417;BME280;28421;51.030;4.006;2022-12-18T07:42:16;102505.50;;;-7.76;71.72
29417;BME280;28421;51.030;4.006;2022-12-18T07:44:57;102524.59;;;-7.69;71.96
29417;BME280;28421;51.030;4.006;2022-12-18T07:47:22;102521.16;;;-7.72;72.31
29417;BME280;28421;51.030;4.006;2022-12-18T07:49:48;102515.81;;;-7.59;72.17
29417;BME280;28421;51.030;4.006;2022-12-18T07:52:13;102515.78;;;-7.57;71.66
29417;BME280;28421;51.030;4.006;2022-12-18T07:54:39;102524.41;;;-7.49;71.77
29417;BME280;28421;51.030;4.006;2022-12-18T07:57:05;102525.25;;;-7.47;71.52
29417;BME280;28421;51.030;4.006;2022-12-18T07:59:31;102533.00;;;-7.36;71.47
29417;BME280;28421;51.030;4.006;2022-12-18T08:01:56;102518.22;;;-7.40;71.45
29417;BME280;28421;51.030;4.006;2022-12-18T08:04:22;102505.19;;;-7.43;71.48
29417;BME280;28421;51.030;4.006;2022-12-18T08:06:47;102495.69;;;-7.51;71.82
29417;BME280;28421;51.030;4.006;2022-12-18T08:09:13;102499.25;;;-7.59;71.41
29417;BME280;28421;51.030;4.006;2022-12-18T08:11:38;102499.19;;;-7.50;71.93
29417;BME280;28421;51.030;4.006;2022-12-18T08:14:04;102504.28;;;-7.42;72.39
29417;BME280;28421;51.030;4.006;2022-12-18T08:16:29;102511.97;;;-7.26;72.46
29417;BME280;28421;51.030;4.006;2022-12-18T08:18:55;102503.00;;;-7.06;72.28
29417;BME280;28421;51.030;4.006;2022-12-18T08:21:26;102506.34;;;-6.92;72.13
29417;BME280;28421;51.030;4.006;2022-12-18T08:23:53;102501.78;;;-6.78;72.07
29417;BME280;28421;51.030;4.006;2022-12-18T08:26:19;102506.13;;;-6.77;72.58
29417;BME280;28421;51.030;4.006;2022-12-18T08:28:45;102511.06;;;-6.57;72.48
29417;BME280;28421;51.030;4.006;2022-12-18T08:31:11;102511.94;;;-6.55;72.76
29417;BME280;28421;51.030;4.006;2022-12-18T08:33:37;102527.50;;;-6.45;73.12
29417;BME280;28421;51.030;4.006;2022-12-18T08:36:03;102525.38;;;-6.20;72.91
29417;BME280;28421;51.030;4.006;2022-12-18T08:38:28;102525.19;;;-6.08;72.63
29417;BME280;28421;51.030;4.006;2022-12-18T08:41:06;102517.28;;;-6.05;72.44
29417;BME280;28421;51.030;4.006;2022-12-18T08:43:32;102508.53;;;-6.04;73.01
29417;BME280;28421;51.030;4.006;2022-12-18T08:46:17;102513.66;;;-5.96;72.86
29417;BME280;28421;51.030;4.006;2022-12-18T08:48:42;102515.81;;;-5.73;73.26
29417;BME280;28421;51.030;4.006;2022-12-18T08:51:09;102516.78;;;-5.76;73.60
29417;BME280;28421;51.030;4.006;2022-12-18T08:53:37;102519.81;;;-5.51;73.56
29417;BME280;28421;51.030;4.006;2022-12-18T08:56:03;102499.47;;;-5.38;73.42
29417;BME280;28421;51.030;4.006;2022-12-18T08:58:29;102497.56;;;-5.30;73.55
29417;BME280;28421;51.030;4.006;2022-12-18T09:01:00;102501.81;;;-5.25;73.60
29417;BME280;28421;51.030;4.006;2022-12-18T09:03:26;102498.00;;;-5.08;73.82
29417;BME280;28421;51.030;4.006;2022-12-18T09:05:52;102493.25;;;-4.91;73.91
29417;BME280;28421;51.030;4.006;2022-12-18T09:08:17;102489.63;;;-4.85;74.00
29417;BME280;28421;51.030;4.006;2022-12-18T09:10:44;102493.75;;;-4.73;74.09
29417;BME280;28421;51.030;4.006;2022-12-18T09:13:13;102490.56;;;-4.47;73.88
29417;BME280;28421;51.030;4.006;2022-12-18T09:15:43;102485.78;;;-4.32;73.56
29417;BME280;28421;51.030;4.006;2022-12-18T09:18:11;102481.09;;;-4.19;73.50
29417;BME280;28421;51.030;4.006;2022-12-18T09:20:37;102472.06;;;-4.07;73.61
29417;BME280;28421;51.030;4.006;2022-12-18T09:23:03;102466.78;;;-4.06;73.62
29417;BME280;28421;51.030;4.006;2022-12-18T09:25:29;102464.03;;;-4.01;73.50
29417;BME280;28421;51.030;4.006;2022-12-18T09:28:17;102464.28;;;-4.10;73.55
29417;BME280;28421;51.030;4.006;2022-12-18T09:30:46;102467.41;;;-3.96;73.52
29417;BME280;28421;51.030;4.006;2022-12-18T09:33:12;102469.38;;;-4.04;73.36
29417;BME280;28421;51.030;4.006;2022-12-18T09:35:38;102480.22;;;-3.84;73.41
29417;BME280;28421;51.030;4.006;2022-12-18T09:38:04;102467.09;;;-3.84;73.56
29417;BME280;28421;51.030;4.006;2022-12-18T09:40:36;102477.59;;;-3.84;73.58
29417;BME280;28421;51.030;4.006;2022-12-18T09:43:05;102453.09;;;-3.52;73.56
29417;BME280;28421;51.030;4.006;2022-12-18T09:45:44;102453.69;;;-3.42;73.60
29417;BME280;28421;51.030;4.006;2022-12-18T09:48:31;102455.69;;;-3.19;73.54
29417;BME280;28421;51.030;4.006;2022-12-18T09:51:02;102455.72;;;-3.20;72.96
29417;BME280;28421;51.030;4.006;2022-12-18T09:53:31;102448.13;;;-3.31;72.71
29417;BME280;28421;51.030;4.006;2022-12-18T09:56:01;102445.78;;;-3.11;73.31
29417;BME280;28421;51.030;4.006;2022-12-18T09:58:35;102441.63;;;-3.18;73.03
29417;BME280;28421;51.030;4.006;2022-12-18T10:01:14;102436.22;;;-3.13;72.90
29417;BME280;28421;51.030;4.006;2022-12-18T10:03:43;102437.63;;;-3.02;72.74
29417;BME280;28421;51.030;4.006;2022-12-18T10:09:15;102422.59;;;-2.70;72.96
29417;BME280;28421;51.030;4.006;2022-12-18T10:12:08;102428.25;;;-2.54;72.61
29417;BME280;28421;51.030;4.006;2022-12-18T10:20:16;102412.81;;;-2.38;72.69
29417;BME280;28421;51.030;4.006;2022-12-18T10:22:55;102417.53;;;-2.48;72.84
29417;BME280;28421;51.030;4.006;2022-12-18T10:25:35;102417.63;;;-2.51;72.04
29417;BME280;28421;51.030;4.006;2022-12-18T10:28:13;102412.09;;;-2.17;72.14
29417;BME280;28421;51.030;4.006;2022-12-18T10:30:39;102408.88;;;-2.00;72.23
29417;BME280;28421;51.030;4.006;2022-12-18T10:33:05;102399.59;;;-1.85;72.54
29417;BME280;28421;51.030;4.006;2022-12-18T10:35:31;102401.72;;;-1.71;72.74
29417;BME280;28421;51.030;4.006;2022-12-18T10:40:26;102407.69;;;-1.66;71.98
29417;BME280;28421;51.030;4.006;2022-12-18T10:43:04;102395.47;;;-1.44;72.42
29417;BME280;28421;51.030;4.006;2022-12-18T10:45:29;102403.69;;;-1.30;72.94
29417;BME280;28421;51.030;4.006;2022-12-18T10:47:55;102400.19;;;-1.07;72.98
29417;BME280;28421;51.030;4.006;2022-12-18T10:53:03;102402.78;;;-1.05;72.22
29417;BME280;28421;51.030;4.006;2022-12-18T10:55:34;102396.09;;;-0.92;72.34
29417;BME280;28421;51.030;4.006;2022-12-18T10:58:32;102397.94;;;-0.72;72.60
29417;BME280;28421;51.030;4.006;2022-12-18T11:01:02;102398.31;;;-0.59;72.58
29417;BME280;28421;51.030;4.006;2022-12-18T11:06:05;102384.59;;;-0.47;72.70
29417;BME280;28421;51.030;4.006;2022-12-18T11:08:31;102379.81;;;-0.59;72.13
29417;BME280;28421;51.030;4.006;2022-12-18T11:10:57;102381.72;;;-0.41;72.44
29417;BME280;28421;51.030;4.006;2022-12-18T11:13:25;102387.50;;;-0.53;71.41
29417;BME280;28421;51.030;4.006;2022-12-18T11:15:51;102386.66;;;-0.54;71.57
29417;BME280;28421;51.030;4.006;2022-12-18T11:18:21;102390.19;;;-0.33;72.17
29417;BME280;28421;51.030;4.006;2022-12-18T11:20:53;102376.38;;;-0.19;72.09
29417;BME280;28421;51.030;4.006;2022-12-18T11:23:21;102387.16;;;-0.03;72.04
29417;BME280;28421;51.030;4.006;2022-12-18T11:25:54;102375.22;;;0.09;71.56
29417;BME280;28421;51.030;4.006;2022-12-18T11:36:39;102373.13;;;0.15;71.94
29417;BME280;28421;51.030;4.006;2022-12-18T11:39:17;102366.00;;;0.17;72.32
29417;BME280;28421;51.030;4.006;2022-12-18T11:41:56;102371.50;;;-0.08;70.68
29417;BME280;28421;51.030;4.006;2022-12-18T11:47:49;102366.66;;;0.22;71.63
29417;BME280;28421;51.030;4.006;2022-12-18T11:50:20;102362.41;;;0.39;72.14
29417;BME280;28421;51.030;4.006;2022-12-18T11:52:47;102353.94;;;0.49;72.04
29417;BME280;28421;51.030;4.006;2022-12-18T11:55:27;102352.63;;;0.60;72.22
29417;BME280;28421;51.030;4.006;2022-12-18T11:58:07;102352.63;;;0.60;72.06
29417;BME280;28421;51.030;4.006;2022-12-18T12:00:44;102336.09;;;0.55;72.07
29417;BME280;28421;51.030;4.006;2022-12-18T12:03:38;102339.81;;;0.69;71.90
29417;BME280;28421;51.030;4.006;2022-12-18T12:06:08;102337.66;;;0.78;72.43
29417;BME280;28421;51.030;4.006;2022-12-18T12:11:14;102334.50;;;0.32;70.90
29417;BME280;28421;51.030;4.006;2022-12-18T12:19:15;102317.78;;;0.88;71.55
29417;BME280;28421;51.030;4.006;2022-12-18T12:25:07;102304.72;;;1.02;71.44
29417;BME280;28421;51.030;4.006;2022-12-18T12:30:21;102302.28;;;0.97;70.85
29417;BME280;28421;51.030;4.006;2022-12-18T12:35:55;102298.22;;;0.90;70.01
29417;BME280;28421;51.030;4.006;2022-12-18T12:38:55;102299.72;;;0.96;69.80
29417;BME280;28421;51.030;4.006;2022-12-18T12:41:25;102301.66;;;0.92;69.55
29417;BME280;28421;51.030;4.006;2022-12-18T12:44:16;102297.34;;;0.90;69.57
29417;BME280;28421;51.030;4.006;2022-12-18T12:46:43;102291.47;;;1.02;70.26
29417;BME280;28421;51.030;4.006;2022-12-18T12:49:15;102286.66;;;1.10;69.65
29417;BME280;28421;51.030;4.006;2022-12-18T12:51:45;102289.03;;;0.97;70.04
29417;BME280;28421;51.030;4.006;2022-12-18T12:54:17;102276.31;;;0.87;69.61
29417;BME280;28421;51.030;4.006;2022-12-18T12:56:56;102285.31;;;1.02;69.41
29417;BME280;28421;51.030;4.006;2022-12-18T13:05:09;102263.66;;;0.74;68.60
29417;BME280;28421;51.030;4.006;2022-12-18T13:07:58;102267.88;;;0.79;68.84
29417;BME280;28421;51.030;4.006;2022-12-18T13:10:30;102260.69;;;0.63;68.52
29417;BME280;28421;51.030;4.006;2022-12-18T13:15:44;102269.72;;;0.59;68.83
29417;BME280;28421;51.030;4.006;2022-12-18T13:25:44;102262.22;;;0.50;67.99
29417;BME280;28421;51.030;4.006;2022-12-18T13:28:14;102248.03;;;0.32;67.83
29417;BME280;28421;51.030;4.006;2022-12-18T13:40:59;102253.03;;;0.57;67.19
29417;BME280;28421;51.030;4.006;2022-12-18T13:43:35;102253.84;;;0.59;67.23
29417;BME280;28421;51.030;4.006;2022-12-18T13:46:28;102255.63;;;0.59;67.24
29417;BME280;28421;51.030;4.006;2022-12-18T13:49:13;102252.31;;;0.72;67.38
29417;BME280;28421;51.030;4.006;2022-12-18T13:51:48;102254.56;;;0.63;66.96
29417;BME280;28421;51.030;4.006;2022-12-18T13:56:57;102250.97;;;0.45;67.23
29417;BME280;28421;51.030;4.006;2022-12-18T13:59:41;102249.84;;;0.51;67.11
29417;BME280;28421;51.030;4.006;2022-12-18T14:02:16;102245.44;;;0.68;66.67
29417;BME280;28421;51.030;4.006;2022-12-18T14:04:45;102245.53;;;0.48;67.19
29417;BME280;28421;51.030;4.006;2022-12-18T14:07:14;102223.59;;;0.46;67.11
29417;BME280;28421;51.030;4.006;2022-12-18T14:09:47;102222.22;;;0.56;66.94
29417;BME280;28421;51.030;4.006;2022-12-18T14:12:22;102219.09;;;0.48;66.65
29417;BME280;28421;51.030;4.006;2022-12-18T14:18:23;102210.38;;;0.27;66.58
29417;BME280;28421;51.030;4.006;2022-12-18T14:20:48;102208.44;;;0.31;66.87
29417;BME280;28421;51.030;4.006;2022-12-18T14:23:37;102207.25;;;0.38;66.63
29417;BME280;28421;51.030;4.006;2022-12-18T14:26:20;102189.72;;;0.35;66.89
29417;BME280;28421;51.030;4.006;2022-12-18T14:28:46;102176.41;;;0.37;66.46
29417;BME280;28421;51.030;4.006;2022-12-18T14:31:24;102175.91;;;0.29;66.95
29417;BME280;28421;51.030;4.006;2022-12-18T14:33:51;102170.34;;;0.35;66.96
29417;BME280;28421;51.030;4.006;2022-12-18T14:36:22;102160.97;;;0.28;66.76
29417;BME280;28421;51.030;4.006;2022-12-18T14:38:50;102149.41;;;0.11;66.75
29417;BME280;28421;51.030;4.006;2022-12-18T14:41:18;102150.34;;;0.10;67.01
29417;BME280;28421;51.030;4.006;2022-12-18T14:43:46;102155.91;;;0.23;67.02
29417;BME280;28421;51.030;4.006;2022-12-18T14:46:34;102162.84;;;0.26;66.66
29417;BME280;28421;51.030;4.006;2022-12-18T14:49:03;102158.94;;;0.33;66.72
29417;BME280;28421;51.030;4.006;2022-12-18T14:51:32;102154.47;;;0.35;66.25
29417;BME280;28421;51.030;4.006;2022-12-18T14:54:00;102152.28;;;0.26;65.75
29417;BME280;28421;51.030;4.006;2022-12-18T14:56:35;102149.72;;;0.41;66.06
29417;BME280;28421;51.030;4.006;2022-12-18T14:59:03;102150.13;;;0.34;65.35
29417;BME280;28421;51.030;4.006;2022-12-18T15:01:37;102153.84;;;0.30;65.85
29417;BME280;28421;51.030;4.006;2022-12-18T15:07:03;102146.31;;;0.20;66.03
29417;BME280;28421;51.030;4.006;2022-12-18T15:09:28;102155.69;;;0.28;65.91
29417;BME280;28421;51.030;4.006;2022-12-18T15:11:59;102152.41;;;0.22;66.12
29417;BME280;28421;51.030;4.006;2022-12-18T15:14:39;102154.47;;;0.35;65.50
29417;BME280;28421;51.030;4.006;2022-12-18T15:17:17;102143.16;;;0.31;65.14
29417;BME280;28421;51.030;4.006;2022-12-18T15:19:44;102132.66;;;0.30;65.52
29417;BME280;28421;51.030;4.006;2022-12-18T15:22:26;102134.72;;;0.42;65.21
29417;BME280;28421;51.030;4.006;2022-12-18T15:24:54;102143.25;;;0.30;65.37
29417;BME280;28421;51.030;4.006;2022-12-18T15:27:36;102147.59;;;0.31;65.05
29417;BME280;28421;51.030;4.006;2022-12-18T15:32:38;102141.72;;;0.43;65.02
29417;BME280;28421;51.030;4.006;2022-12-18T15:35:17;102133.69;;;0.44;64.99
29417;BME280;28421;51.030;4.006;2022-12-18T15:37:43;102132.06;;;0.42;64.43
29417;BME280;28421;51.030;4.006;2022-12-18T15:40:17;102130.56;;;0.36;64.81
29417;BME280;28421;51.030;4.006;2022-12-18T15:42:44;102126.94;;;0.39;64.95
29417;BME280;28421;51.030;4.006;2022-12-18T15:45:48;102124.75;;;0.30;65.00
29417;BME280;28421;51.030;4.006;2022-12-18T15:48:21;102127.88;;;0.38;65.19
29417;BME280;28421;51.030;4.006;2022-12-18T15:50:47;102132.94;;;0.42;65.14
29417;BME280;28421;51.030;4.006;2022-12-18T15:53:13;102124.19;;;0.40;65.41
29417;BME280;28421;51.030;4.006;2022-12-18T15:55:38;102122.25;;;0.44;65.42
29417;BME280;28421;51.030;4.006;2022-12-18T15:58:22;102123.69;;;0.51;65.35
29417;BME280;28421;51.030;4.006;2022-12-18T16:00:48;102127.94;;;0.54;65.58
29417;BME280;28421;51.030;4.006;2022-12-18T16:03:13;102125.16;;;0.57;65.21
29417;BME280;28421;51.030;4.006;2022-12-18T16:05:39;102100.84;;;0.31;65.45
29417;BME280;28421;51.030;4.006;2022-12-18T16:08:04;102114.94;;;0.49;65.75
29417;BME280;28421;51.030;4.006;2022-12-18T16:10:29;102110.44;;;0.51;65.41
29417;BME280;28421;51.030;4.006;2022-12-18T16:12:55;102119.94;;;0.55;65.37
29417;BME280;28421;51.030;4.006;2022-12-18T16:15:20;102121.56;;;0.58;65.55
29417;BME280;28421;51.030;4.006;2022-12-18T16:17:47;102115.03;;;0.65;65.06
29417;BME280;28421;51.030;4.006;2022-12-18T16:20:17;102132.72;;;0.64;64.48
29417;BME280;28421;51.030;4.006;2022-12-18T16:22:44;102114.50;;;0.58;64.39
29417;BME280;28421;51.030;4.006;2022-12-18T16:25:20;102125.34;;;0.71;64.75
29417;BME280;28421;51.030;4.006;2022-12-18T16:27:46;102116.22;;;0.59;64.62
29417;BME280;28421;51.030;4.006;2022-12-18T16:30:16;102106.47;;;0.60;64.67
29417;BME280;28421;51.030;4.006;2022-12-18T16:32:43;102107.84;;;0.49;64.44
29417;BME280;28421;51.030;4.006;2022-12-18T16:35:10;102106.25;;;0.64;64.81
29417;BME280;28421;51.030;4.006;2022-12-18T16:37:36;102086.53;;;0.70;64.58
29417;BME280;28421;51.030;4.006;2022-12-18T16:40:02;102075.44;;;0.63;64.33
29417;BME280;28421;51.030;4.006;2022-12-18T16:42:27;102079.41;;;0.72;63.76
29417;BME280;28421;51.030;4.006;2022-12-18T16:44:53;102077.00;;;0.67;63.99
29417;BME280;28421;51.030;4.006;2022-12-18T16:47:18;102079.53;;;0.69;64.40
29417;BME280;28421;51.030;4.006;2022-12-18T16:49:44;102096.28;;;0.69;63.81
29417;BME280;28421;51.030;4.006;2022-12-18T16:52:12;102087.81;;;0.80;63.63
29417;BME280;28421;51.030;4.006;2022-12-18T16:54:37;102076.88;;;0.86;64.19
29417;BME280;28421;51.030;4.006;2022-12-18T16:57:03;102080.00;;;0.94;63.55
29417;BME280;28421;51.030;4.006;2022-12-18T16:59:32;102082.56;;;0.61;64.76
29417;BME280;28421;51.030;4.006;2022-12-18T17:01:57;102078.06;;;0.81;64.16
29417;BME280;28421;51.030;4.006;2022-12-18T17:04:22;102076.81;;;0.70;64.09
29417;BME280;28421;51.030;4.006;2022-12-18T17:06:48;102086.47;;;0.89;64.33
29417;BME280;28421;51.030;4.006;2022-12-18T17:09:17;102089.03;;;0.90;64.54
29417;BME280;28421;51.030;4.006;2022-12-18T17:11:49;102074.22;;;0.86;64.02
29417;BME280;28421;51.030;4.006;2022-12-18T17:14:18;102075.00;;;1.06;64.41
29417;BME280;28421;51.030;4.006;2022-12-18T17:16:43;102066.03;;;0.91;65.07
29417;BME280;28421;51.030;4.006;2022-12-18T17:19:10;102074.78;;;0.93;65.19
29417;BME280;28421;51.030;4.006;2022-12-18T17:21:35;102076.78;;;1.05;65.74
29417;BME280;28421;51.030;4.006;2022-12-18T17:24:01;102069.38;;;1.12;66.09
29417;BME280;28421;51.030;4.006;2022-12-18T17:26:27;102053.13;;;1.02;66.78
29417;BME280;28421;51.030;4.006;2022-12-18T17:28:54;102067.91;;;1.06;67.22
29417;BME280;28421;51.030;4.006;2022-12-18T17:31:22;102061.59;;;1.09;67.44
29417;BME280;28421;51.030;4.006;2022-12-18T17:33:48;102072.19;;;1.09;67.78
29417;BME280;28421;51.030;4.006;2022-12-18T17:36:15;102071.41;;;1.07;68.10
29417;BME280;28421;51.030;4.006;2022-12-18T17:38:40;102080.06;;;1.10;68.47
29417;BME280;28421;51.030;4.006;2022-12-18T17:41:07;102073.78;;;0.95;68.62
29417;BME280;28421;51.030;4.006;2022-12-18T17:43:34;102084.38;;;0.95;68.85
29417;BME280;28421;51.030;4.006;2022-12-18T17:46:04;102074.53;;;0.97;69.49
29417;BME280;28421;51.030;4.006;2022-12-18T17:48:30;102082.00;;;1.07;69.74
29417;BME280;28421;51.030;4.006;2022-12-18T17:51:03;102084.28;;;0.97;69.94
29417;BME280;28421;51.030;4.006;2022-12-18T17:53:29;102077.59;;;0.90;70.19
29417;BME280;28421;51.030;4.006;2022-12-18T17:55:56;102083.78;;;1.06;70.17
29417;BME280;28421;51.030;4.006;2022-12-18T17:58:24;102090.44;;;0.97;70.37
29417;BME280;28421;51.030;4.006;2022-12-18T18:00:49;102086.84;;;0.98;70.58
29417;BME280;28421;51.030;4.006;2022-12-18T18:03:15;102074.53;;;0.97;70.92
29417;BME280;28421;51.030;4.006;2022-12-18T18:05:40;102067.44;;;0.98;71.02
29417;BME280;28421;51.030;4.006;2022-12-18T18:08:06;102078.97;;;0.97;71.53
29417;BME280;28421;51.030;4.006;2022-12-18T18:10:34;102074.00;;;1.08;71.41
29417;BME280;28421;51.030;4.006;2022-12-18T18:13:00;102063.66;;;1.19;71.41
29417;BME280;28421;51.030;4.006;2022-12-18T18:15:54;102062.34;;;1.11;71.29
29417;BME280;28421;51.030;4.006;2022-12-18T18:18:20;102065.34;;;1.05;72.38
29417;BME280;28421;51.030;4.006;2022-12-18T18:20:45;102065.50;;;1.02;72.03
29417;BME280;28421;51.030;4.006;2022-12-18T18:23:11;102066.34;;;1.02;72.63
29417;BME280;28421;51.030;4.006;2022-12-18T18:25:36;102069.34;;;0.96;72.85
29417;BME280;28421;51.030;4.006;2022-12-18T18:28:02;102079.50;;;1.04;72.51
29417;BME280;28421;51.030;4.006;2022-12-18T18:30:28;102056.47;;;1.06;72.54
29417;BME280;28421;51.030;4.006;2022-12-18T18:32:54;102066.97;;;1.07;72.72
29417;BME280;28421;51.030;4.006;2022-12-18T18:35:19;102083.34;;;0.98;72.99
29417;BME280;28421;51.030;4.006;2022-12-18T18:37:47;102073.69;;;0.97;73.10
29417;BME280;28421;51.030;4.006;2022-12-18T18:40:12;102079.69;;;1.01;73.40
29417;BME280;28421;51.030;4.006;2022-12-18T18:42:38;102045.66;;;0.93;73.36
29417;BME280;28421;51.030;4.006;2022-12-18T18:45:03;102100.59;;;1.22;72.65
29417;BME280;28421;51.030;4.006;2022-12-18T18:47:29;102103.59;;;1.16;73.57
29417;BME280;28421;51.030;4.006;2022-12-18T18:49:55;102093.75;;;1.18;73.55
29417;BME280;28421;51.030;4.006;2022-12-18T18:52:20;102106.25;;;1.32;73.16
29417;BME280;28421;51.030;4.006;2022-12-18T18:54:47;102088.78;;;1.12;73.78
29417;BME280;28421;51.030;4.006;2022-12-18T18:57:13;102096.34;;;1.03;74.15
29417;BME280;28421;51.030;4.006;2022-12-18T18:59:39;102077.66;;;1.06;74.66
29417;BME280;28421;51.030;4.006;2022-12-18T19:02:05;102085.09;;;1.15;74.58
29417;BME280;28421;51.030;4.006;2022-12-18T19:04:34;102097.59;;;1.13;75.10
29417;BME280;28421;51.030;4.006;2022-12-18T19:07:00;102083.78;;;1.06;74.98
29417;BME280;28421;51.030;4.006;2022-12-18T19:09:26;102086.75;;;1.17;75.28
29417;BME280;28421;51.030;4.006;2022-12-18T19:11:52;102084.09;;;1.17;75.24
29417;BME280;28421;51.030;4.006;2022-12-18T19:14:35;102085.50;;;1.24;75.24
29417;BME280;28421;51.030;4.006;2022-12-18T19:17:01;102078.94;;;1.14;75.95
29417;BME280;28421;51.030;4.006;2022-12-18T19:19:26;102081.09;;;1.23;75.94
29417;BME280;28421;51.030;4.006;2022-12-18T19:21:52;102067.50;;;1.14;76.33
29417;BME280;28421;51.030;4.006;2022-12-18T19:24:17;102077.09;;;1.16;76.40
29417;BME280;28421;51.030;4.006;2022-12-18T19:26:43;102060.94;;;1.21;76.33
29417;BME280;28421;51.030;4.006;2022-12-18T19:29:10;102057.44;;;1.20;76.72
29417;BME280;28421;51.030;4.006;2022-12-18T19:31:36;102056.25;;;1.26;76.41
29417;BME280;28421;51.030;4.006;2022-12-18T19:34:04;102060.97;;;1.37;76.45
29417;BME280;28421;51.030;4.006;2022-12-18T19:36:32;102055.00;;;1.49;76.14
29417;BME280;28421;51.030;4.006;2022-12-18T19:38:59;102035.25;;;1.39;76.08
29417;BME280;28421;51.030;4.006;2022-12-18T19:41:25;102035.78;;;1.45;76.49
29417;BME280;28421;51.030;4.006;2022-12-18T19:43:52;102038.84;;;1.38;76.52
29417;BME280;28421;51.030;4.006;2022-12-18T19:46:20;102030.44;;;1.30;76.69
29417;BME280;28421;51.030;4.006;2022-12-18T19:48:46;102050.81;;;1.29;77.07
29417;BME280;28421;51.030;4.006;2022-12-18T19:51:25;102043.59;;;1.31;77.55
29417;BME280;28421;51.030;4.006;2022-12-18T19:53:52;102030.28;;;1.48;77.17
29417;BME280;28421;51.030;4.006;2022-12-18T19:56:19;102033.31;;;1.58;76.95
29417;BME280;28421;51.030;4.006;2022-12-18T19:58:45;102022.19;;;1.52;77.04
29417;BME280;28421;51.030;4.006;2022-12-18T20:01:13;102033.13;;;1.45;76.81
29417;BME280;28421;51.030;4.006;2022-12-18T20:03:39;102020.63;;;1.47;76.85
29417;BME280;28421;51.030;4.006;2022-12-18T20:06:12;102019.59;;;1.66;76.87
29417;BME280;28421;51.030;4.006;2022-12-18T20:08:38;102019.63;;;1.50;77.09
29417;BME280;28421;51.030;4.006;2022-12-18T20:11:04;102008.59;;;1.58;77.21
29417;BME280;28421;51.030;4.006;2022-12-18T20:13:29;102001.06;;;1.50;77.31
29417;BME280;28421;51.030;4.006;2022-12-18T20:15:55;101991.91;;;1.40;77.48
29417;BME280;28421;51.030;4.006;2022-12-18T20:18:20;102009.09;;;1.48;77.97
29417;BME280;28421;51.030;4.006;2022-12-18T20:20:46;102004.41;;;1.38;78.53
29417;BME280;28421;51.030;4.006;2022-12-18T20:23:11;101994.81;;;1.51;78.11
29417;BME280;28421;51.030;4.006;2022-12-18T20:25:37;101991.31;;;1.66;77.68
29417;BME280;28421;51.030;4.006;2022-12-18T20:28:03;101981.03;;;1.60;77.73
29417;BME280;28421;51.030;4.006;2022-12-18T20:30:28;101983.09;;;1.55;77.93